sensor_id;sensor_type;location;lat;lon;timestamp;P1;durP1;ratioP1;P2;durP2;ratioP2
11313;SDS011;5712;48.858;9.206;2023-05-08T00:01:56;5.73;;;5.23;;
11313;SDS011;5712;48.858;9.206;2023-05-08T00:04:23;6.20;;;5.07;;
11313;SDS011;5712;48.858;9.206;2023-05-08T00:06:51;6.23;;;5.47;;
11313;SDS011;5712;48.858;9.206;2023-05-08T00:09:18;5.63;;;5.13;;
11313;SDS011;5712;48.858;9.206;2023-05-08T00:11:45;6.40;;;5.73;;
11313;SDS011;5712;48.858;9.206;2023-05-08T00:14:11;5.80;;;5.23;;
11313;SDS011;5712;48.858;9.206;2023-05-08T00:16:37;6.50;;;5.27;;
11313;SDS011;5712;48.858;9.206;2023-05-08T00:19:04;6.30;;;5.70;;
11313;SDS011;5712;48.858;9.206;2023-05-08T00:21:30;6.03;;;5.43;;
11313;SDS011;5712;48.858;9.206;2023-05-08T00:23:58;5.63;;;5.13;;
11313;SDS011;5712;48.858;9.206;2023-05-08T00:26:25;5.50;;;4.97;;
11313;SDS011;5712;48.858;9.206;2023-05-08T00:28:51;5.47;;;4.93;;
11313;SDS011;5712;48.858;9.206;2023-05-08T00:31:18;6.37;;;5.40;;
11313;SDS011;5712;48.858;9.206;2023-05-08T00:33:44;5.67;;;4.90;;
11313;SDS011;5712;48.858;9.206;2023-05-08T00:36:11;5.27;;;4.77;;
11313;SDS011;5712;48.858;9.206;2023-05-08T00:38:39;5.87;;;5.30;;
11313;SDS011;5712;48.858;9.206;2023-05-08T00:41:07;5.77;;;5.27;;
11313;SDS011;5712;48.858;9.206;2023-05-08T00:43:34;6.33;;;5.57;;
11313;SDS011;5712;48.858;9.206;2023-05-08T00:46:01;6.77;;;6.07;;
11313;SDS011;5712;48.858;9.206;2023-05-08T00:48:30;6.00;;;5.40;;
11313;SDS011;5712;48.858;9.206;2023-05-08T00:50:58;5.73;;;5.23;;
11313;SDS011;5712;48.858;9.206;2023-05-08T00:53:27;7.53;;;5.67;;
11313;SDS011;5712;48.858;9.206;2023-05-08T00:55:56;5.93;;;5.40;;
11313;SDS011;5712;48.858;9.206;2023-05-08T00:58:26;7.00;;;5.43;;
11313;SDS011;5712;48.858;9.206;2023-05-08T01:00:54;7.23;;;6.53;;
11313;SDS011;5712;48.858;9.206;2023-05-08T01:03:21;6.33;;;5.60;;
11313;SDS011;5712;48.858;9.206;2023-05-08T01:05:48;6.90;;;6.07;;
11313;SDS011;5712;48.858;9.206;2023-05-08T01:08:15;7.10;;;6.40;;
11313;SDS011;5712;48.858;9.206;2023-05-08T01:10:43;6.50;;;5.90;;
11313;SDS011;5712;48.858;9.206;2023-05-08T01:13:19;6.47;;;5.87;;
11313;SDS011;5712;48.858;9.206;2023-05-08T01:15:56;6.73;;;6.03;;
11313;SDS011;5712;48.858;9.206;2023-05-08T01:18:32;8.13;;;7.10;;
11313;SDS011;5712;48.858;9.206;2023-05-08T01:21:04;7.13;;;6.27;;
11313;SDS011;5712;48.858;9.206;2023-05-08T01:26:57;7.20;;;6.50;;
11313;SDS011;5712;48.858;9.206;2023-05-08T01:32:43;6.33;;;5.73;;
11313;SDS011;5712;48.858;9.206;2023-05-08T01:35:16;6.40;;;5.70;;
11313;SDS011;5712;48.858;9.206;2023-05-08T01:37:50;6.03;;;5.43;;
11313;SDS011;5712;48.858;9.206;2023-05-08T01:40:24;6.43;;;5.70;;
11313;SDS011;5712;48.858;9.206;2023-05-08T01:43:02;7.90;;;6.00;;
11313;SDS011;5712;48.858;9.206;2023-05-08T01:45:38;7.10;;;6.07;;
11313;SDS011;5712;48.858;9.206;2023-05-08T01:48:09;7.43;;;6.60;;
11313;SDS011;5712;48.858;9.206;2023-05-08T01:50:37;9.40;;;8.07;;
11313;SDS011;5712;48.858;9.206;2023-05-08T01:53:08;8.13;;;7.33;;
11313;SDS011;5712;48.858;9.206;2023-05-08T01:55:38;8.80;;;7.90;;
11313;SDS011;5712;48.858;9.206;2023-05-08T01:58:08;8.87;;;7.80;;
11313;SDS011;5712;48.858;9.206;2023-05-08T02:00:37;8.50;;;7.60;;
11313;SDS011;5712;48.858;9.206;2023-05-08T02:03:05;8.17;;;7.23;;
11313;SDS011;5712;48.858;9.206;2023-05-08T02:05:35;9.23;;;8.13;;
11313;SDS011;5712;48.858;9.206;2023-05-08T02:08:03;8.77;;;7.87;;
11313;SDS011;5712;48.858;9.206;2023-05-08T02:10:30;9.63;;;8.10;;
11313;SDS011;5712;48.858;9.206;2023-05-08T02:12:58;9.73;;;8.73;;
11313;SDS011;5712;48.858;9.206;2023-05-08T02:15:26;9.93;;;8.73;;
11313;SDS011;5712;48.858;9.206;2023-05-08T02:17:59;9.33;;;8.33;;
11313;SDS011;5712;48.858;9.206;2023-05-08T02:20:30;10.80;;;9.30;;
11313;SDS011;5712;48.858;9.206;2023-05-08T02:22:57;10.03;;;9.03;;
11313;SDS011;5712;48.858;9.206;2023-05-08T02:25:25;10.30;;;9.20;;
11313;SDS011;5712;48.858;9.206;2023-05-08T02:27:53;10.53;;;9.43;;
11313;SDS011;5712;48.858;9.206;2023-05-08T02:30:21;10.60;;;9.50;;
11313;SDS011;5712;48.858;9.206;2023-05-08T02:32:50;12.00;;;9.30;;
11313;SDS011;5712;48.858;9.206;2023-05-08T02:35:19;11.63;;;9.30;;
11313;SDS011;5712;48.858;9.206;2023-05-08T02:37:48;10.63;;;8.97;;
11313;SDS011;5712;48.858;9.206;2023-05-08T02:40:17;11.07;;;8.60;;
11313;SDS011;5712;48.858;9.206;2023-05-08T02:42:47;9.43;;;8.03;;
11313;SDS011;5712;48.858;9.206;2023-05-08T02:45:14;10.13;;;8.90;;
11313;SDS011;5712;48.858;9.206;2023-05-08T02:47:42;10.13;;;9.13;;
11313;SDS011;5712;48.858;9.206;2023-05-08T02:50:17;10.73;;;9.63;;
11313;SDS011;5712;48.858;9.206;2023-05-08T02:52:50;9.37;;;8.43;;
11313;SDS011;5712;48.858;9.206;2023-05-08T02:55:22;12.03;;;10.40;;
11313;SDS011;5712;48.858;9.206;2023-05-08T02:58:01;11.37;;;10.27;;
11313;SDS011;5712;48.858;9.206;2023-05-08T03:00:39;11.37;;;9.50;;
11313;SDS011;5712;48.858;9.206;2023-05-08T03:03:11;10.93;;;8.87;;
11313;SDS011;5712;48.858;9.206;2023-05-08T03:05:44;11.87;;;10.07;;
11313;SDS011;5712;48.858;9.206;2023-05-08T03:08:17;11.83;;;9.97;;
11313;SDS011;5712;48.858;9.206;2023-05-08T03:10:47;11.27;;;9.83;;
11313;SDS011;5712;48.858;9.206;2023-05-08T03:13:16;10.80;;;9.30;;
11313;SDS011;5712;48.858;9.206;2023-05-08T03:15:46;11.50;;;9.67;;
11313;SDS011;5712;48.858;9.206;2023-05-08T03:18:18;12.30;;;10.50;;
11313;SDS011;5712;48.858;9.206;2023-05-08T03:20:47;11.17;;;9.87;;
11313;SDS011;5712;48.858;9.206;2023-05-08T03:23:19;11.17;;;10.00;;
11313;SDS011;5712;48.858;9.206;2023-05-08T03:25:48;10.97;;;9.83;;
11313;SDS011;5712;48.858;9.206;2023-05-08T03:28:17;13.50;;;10.13;;
11313;SDS011;5712;48.858;9.206;2023-05-08T03:30:45;11.37;;;9.43;;
11313;SDS011;5712;48.858;9.206;2023-05-08T03:33:13;12.50;;;10.37;;
11313;SDS011;5712;48.858;9.206;2023-05-08T03:35:41;11.90;;;10.27;;
11313;SDS011;5712;48.858;9.206;2023-05-08T03:38:09;11.10;;;9.90;;
11313;SDS011;5712;48.858;9.206;2023-05-08T03:40:38;11.07;;;9.10;;
11313;SDS011;5712;48.858;9.206;2023-05-08T03:43:06;9.73;;;8.60;;
11313;SDS011;5712;48.858;9.206;2023-05-08T03:45:34;14.10;;;11.97;;
11313;SDS011;5712;48.858;9.206;2023-05-08T03:48:02;12.97;;;11.43;;
11313;SDS011;5712;48.858;9.206;2023-05-08T03:50:30;15.07;;;12.23;;
11313;SDS011;5712;48.858;9.206;2023-05-08T03:52:57;12.63;;;11.23;;
11313;SDS011;5712;48.858;9.206;2023-05-08T03:55:24;13.50;;;12.00;;
11313;SDS011;5712;48.858;9.206;2023-05-08T03:57:54;12.87;;;11.20;;
11313;SDS011;5712;48.858;9.206;2023-05-08T04:00:25;12.70;;;11.30;;
11313;SDS011;5712;48.858;9.206;2023-05-08T04:03:00;14.23;;;12.23;;
11313;SDS011;5712;48.858;9.206;2023-05-08T04:05:40;14.50;;;12.33;;
11313;SDS011;5712;48.858;9.206;2023-05-08T04:08:14;13.47;;;11.87;;
11313;SDS011;5712;48.858;9.206;2023-05-08T04:10:45;13.93;;;11.67;;
11313;SDS011;5712;48.858;9.206;2023-05-08T04:13:18;15.57;;;12.67;;
11313;SDS011;5712;48.858;9.206;2023-05-08T04:15:51;16.17;;;14.07;;
11313;SDS011;5712;48.858;9.206;2023-05-08T04:18:21;14.83;;;13.23;;
11313;SDS011;5712;48.858;9.206;2023-05-08T04:20:53;16.50;;;13.20;;
11313;SDS011;5712;48.858;9.206;2023-05-08T04:23:21;16.23;;;13.73;;
11313;SDS011;5712;48.858;9.206;2023-05-08T04:25:50;17.10;;;13.33;;
11313;SDS011;5712;48.858;9.206;2023-05-08T04:28:18;15.83;;;14.13;;
11313;SDS011;5712;48.858;9.206;2023-05-08T04:30:46;15.63;;;12.77;;
11313;SDS011;5712;48.858;9.206;2023-05-08T04:33:13;14.07;;;12.03;;
11313;SDS011;5712;48.858;9.206;2023-05-08T04:35:42;13.70;;;11.53;;
11313;SDS011;5712;48.858;9.206;2023-05-08T04:38:10;14.97;;;11.93;;
11313;SDS011;5712;48.858;9.206;2023-05-08T04:40:36;12.80;;;11.07;;
11313;SDS011;5712;48.858;9.206;2023-05-08T04:43:03;13.93;;;12.00;;
11313;SDS011;5712;48.858;9.206;2023-05-08T04:45:31;11.30;;;10.03;;
11313;SDS011;5712;48.858;9.206;2023-05-08T04:47:57;12.40;;;11.03;;
11313;SDS011;5712;48.858;9.206;2023-05-08T04:50:24;12.47;;;10.90;;
11313;SDS011;5712;48.858;9.206;2023-05-08T04:52:50;12.47;;;11.00;;
11313;SDS011;5712;48.858;9.206;2023-05-08T04:55:17;11.57;;;10.37;;
11313;SDS011;5712;48.858;9.206;2023-05-08T04:57:43;12.57;;;10.70;;
11313;SDS011;5712;48.858;9.206;2023-05-08T05:00:10;11.63;;;10.43;;
11313;SDS011;5712;48.858;9.206;2023-05-08T05:02:39;12.57;;;10.73;;
11313;SDS011;5712;48.858;9.206;2023-05-08T05:05:06;11.87;;;10.67;;
11313;SDS011;5712;48.858;9.206;2023-05-08T05:07:33;11.73;;;10.13;;
11313;SDS011;5712;48.858;9.206;2023-05-08T05:09:59;12.70;;;10.93;;
11313;SDS011;5712;48.858;9.206;2023-05-08T05:12:26;11.93;;;10.20;;
11313;SDS011;5712;48.858;9.206;2023-05-08T05:14:52;13.43;;;10.77;;
11313;SDS011;5712;48.858;9.206;2023-05-08T05:17:19;14.10;;;11.53;;
11313;SDS011;5712;48.858;9.206;2023-05-08T05:19:47;12.23;;;10.93;;
11313;SDS011;5712;48.858;9.206;2023-05-08T05:22:13;12.00;;;10.73;;
11313;SDS011;5712;48.858;9.206;2023-05-08T05:24:40;14.77;;;11.33;;
11313;SDS011;5712;48.858;9.206;2023-05-08T05:27:06;13.17;;;11.33;;
11313;SDS011;5712;48.858;9.206;2023-05-08T05:29:33;12.97;;;11.13;;
11313;SDS011;5712;48.858;9.206;2023-05-08T05:32:00;13.83;;;12.33;;
11313;SDS011;5712;48.858;9.206;2023-05-08T05:34:27;14.33;;;12.23;;
11313;SDS011;5712;48.858;9.206;2023-05-08T05:36:55;15.67;;;13.27;;
11313;SDS011;5712;48.858;9.206;2023-05-08T05:39:21;14.97;;;13.20;;
11313;SDS011;5712;48.858;9.206;2023-05-08T05:41:48;14.53;;;12.27;;
11313;SDS011;5712;48.858;9.206;2023-05-08T05:44:14;12.63;;;11.33;;
11313;SDS011;5712;48.858;9.206;2023-05-08T05:46:40;12.13;;;10.67;;
11313;SDS011;5712;48.858;9.206;2023-05-08T05:49:07;13.90;;;11.97;;
11313;SDS011;5712;48.858;9.206;2023-05-08T05:51:33;14.30;;;11.40;;
11313;SDS011;5712;48.858;9.206;2023-05-08T05:54:01;14.47;;;11.27;;
11313;SDS011;5712;48.858;9.206;2023-05-08T05:56:28;13.63;;;12.20;;
11313;SDS011;5712;48.858;9.206;2023-05-08T05:58:54;13.13;;;11.80;;
11313;SDS011;5712;48.858;9.206;2023-05-08T06:01:21;12.87;;;11.37;;
11313;SDS011;5712;48.858;9.206;2023-05-08T06:03:48;12.13;;;10.93;;
11313;SDS011;5712;48.858;9.206;2023-05-08T06:06:15;13.43;;;11.80;;
11313;SDS011;5712;48.858;9.206;2023-05-08T06:08:42;13.10;;;11.70;;
11313;SDS011;5712;48.858;9.206;2023-05-08T06:11:10;13.47;;;12.07;;
11313;SDS011;5712;48.858;9.206;2023-05-08T06:13:37;11.93;;;10.70;;
11313;SDS011;5712;48.858;9.206;2023-05-08T06:16:04;12.97;;;11.53;;
11313;SDS011;5712;48.858;9.206;2023-05-08T06:18:32;13.90;;;11.50;;
11313;SDS011;5712;48.858;9.206;2023-05-08T06:20:58;12.23;;;10.93;;
11313;SDS011;5712;48.858;9.206;2023-05-08T06:23:25;12.33;;;10.90;;
11313;SDS011;5712;48.858;9.206;2023-05-08T06:25:52;13.63;;;11.40;;
11313;SDS011;5712;48.858;9.206;2023-05-08T06:28:20;14.43;;;11.90;;
11313;SDS011;5712;48.858;9.206;2023-05-08T06:30:49;13.23;;;11.77;;
11313;SDS011;5712;48.858;9.206;2023-05-08T06:33:16;14.63;;;11.73;;
11313;SDS011;5712;48.858;9.206;2023-05-08T06:35:44;13.57;;;12.17;;
11313;SDS011;5712;48.858;9.206;2023-05-08T06:38:11;12.63;;;11.33;;
11313;SDS011;5712;48.858;9.206;2023-05-08T06:40:40;13.57;;;12.17;;
11313;SDS011;5712;48.858;9.206;2023-05-08T06:43:07;13.87;;;12.07;;
11313;SDS011;5712;48.858;9.206;2023-05-08T06:45:35;14.00;;;12.07;;
11313;SDS011;5712;48.858;9.206;2023-05-08T06:48:01;14.10;;;12.50;;
11313;SDS011;5712;48.858;9.206;2023-05-08T06:50:28;14.43;;;12.47;;
11313;SDS011;5712;48.858;9.206;2023-05-08T06:52:55;15.43;;;12.63;;
11313;SDS011;5712;48.858;9.206;2023-05-08T06:55:21;14.00;;;11.70;;
11313;SDS011;5712;48.858;9.206;2023-05-08T06:57:48;14.50;;;12.13;;
11313;SDS011;5712;48.858;9.206;2023-05-08T07:00:15;13.97;;;12.10;;
11313;SDS011;5712;48.858;9.206;2023-05-08T07:02:43;12.87;;;11.57;;
11313;SDS011;5712;48.858;9.206;2023-05-08T07:05:09;13.27;;;11.87;;
11313;SDS011;5712;48.858;9.206;2023-05-08T07:07:36;14.10;;;12.65;;
11313;SDS011;5712;48.858;9.206;2023-05-08T07:10:02;12.80;;;11.40;;
11313;SDS011;5712;48.858;9.206;2023-05-08T07:12:29;12.67;;;11.37;;
11313;SDS011;5712;48.858;9.206;2023-05-08T07:14:56;14.00;;;12.60;;
11313;SDS011;5712;48.858;9.206;2023-05-08T07:17:22;13.23;;;11.93;;
11313;SDS011;5712;48.858;9.206;2023-05-08T07:19:50;14.23;;;12.73;;
11313;SDS011;5712;48.858;9.206;2023-05-08T07:22:17;13.63;;;11.90;;
11313;SDS011;5712;48.858;9.206;2023-05-08T07:24:43;14.67;;;12.93;;
11313;SDS011;5712;48.858;9.206;2023-05-08T07:27:10;15.77;;;13.07;;
11313;SDS011;5712;48.858;9.206;2023-05-08T07:29:38;17.10;;;14.13;;
11313;SDS011;5712;48.858;9.206;2023-05-08T07:32:05;15.50;;;13.47;;
11313;SDS011;5712;48.858;9.206;2023-05-08T07:34:32;19.27;;;14.07;;
11313;SDS011;5712;48.858;9.206;2023-05-08T07:37:00;15.10;;;13.50;;
11313;SDS011;5712;48.858;9.206;2023-05-08T07:39:27;15.20;;;13.60;;
11313;SDS011;5712;48.858;9.206;2023-05-08T07:41:53;15.83;;;13.00;;
11313;SDS011;5712;48.858;9.206;2023-05-08T07:44:20;14.60;;;12.60;;
11313;SDS011;5712;48.858;9.206;2023-05-08T07:46:46;14.37;;;12.87;;
11313;SDS011;5712;48.858;9.206;2023-05-08T07:49:13;13.63;;;12.23;;
11313;SDS011;5712;48.858;9.206;2023-05-08T07:51:39;12.17;;;10.83;;
11313;SDS011;5712;48.858;9.206;2023-05-08T07:54:07;12.57;;;11.27;;
11313;SDS011;5712;48.858;9.206;2023-05-08T07:56:34;11.57;;;10.37;;
11313;SDS011;5712;48.858;9.206;2023-05-08T07:59:00;11.47;;;10.33;;
11313;SDS011;5712;48.858;9.206;2023-05-08T08:01:28;10.50;;;9.37;;
11313;SDS011;5712;48.858;9.206;2023-05-08T08:03:54;10.03;;;9.03;;
11313;SDS011;5712;48.858;9.206;2023-05-08T08:06:21;9.67;;;8.77;;
11313;SDS011;5712;48.858;9.206;2023-05-08T08:08:47;8.07;;;7.37;;
11313;SDS011;5712;48.858;9.206;2023-05-08T08:11:15;8.17;;;7.37;;
11313;SDS011;5712;48.858;9.206;2023-05-08T08:13:41;8.97;;;7.77;;
11313;SDS011;5712;48.858;9.206;2023-05-08T08:16:08;8.33;;;7.43;;
11313;SDS011;5712;48.858;9.206;2023-05-08T08:18:35;7.27;;;6.57;;
11313;SDS011;5712;48.858;9.206;2023-05-08T08:21:03;9.40;;;7.70;;
11313;SDS011;5712;48.858;9.206;2023-05-08T08:23:30;7.90;;;7.13;;
11313;SDS011;5712;48.858;9.206;2023-05-08T08:25:57;7.40;;;6.63;;
11313;SDS011;5712;48.858;9.206;2023-05-08T08:28:24;7.40;;;6.40;;
11313;SDS011;5712;48.858;9.206;2023-05-08T08:30:51;6.30;;;5.70;;
11313;SDS011;5712;48.858;9.206;2023-05-08T08:33:17;6.57;;;5.97;;
11313;SDS011;5712;48.858;9.206;2023-05-08T08:35:44;7.30;;;6.57;;
11313;SDS011;5712;48.858;9.206;2023-05-08T08:38:10;7.73;;;6.97;;
11313;SDS011;5712;48.858;9.206;2023-05-08T08:40:37;7.13;;;6.43;;
11313;SDS011;5712;48.858;9.206;2023-05-08T08:43:05;7.03;;;6.33;;
11313;SDS011;5712;48.858;9.206;2023-05-08T08:45:33;7.27;;;6.20;;
11313;SDS011;5712;48.858;9.206;2023-05-08T08:48:01;7.33;;;6.63;;
11313;SDS011;5712;48.858;9.206;2023-05-08T08:50:28;7.67;;;6.87;;
11313;SDS011;5712;48.858;9.206;2023-05-08T08:52:59;6.73;;;6.13;;
11313;SDS011;5712;48.858;9.206;2023-05-08T08:55:30;6.90;;;6.20;;
11313;SDS011;5712;48.858;9.206;2023-05-08T08:58:02;7.70;;;6.90;;
11313;SDS011;5712;48.858;9.206;2023-05-08T09:00:40;7.20;;;6.50;;
11313;SDS011;5712;48.858;9.206;2023-05-08T09:03:08;7.87;;;6.80;;
11313;SDS011;5712;48.858;9.206;2023-05-08T09:05:35;7.60;;;6.87;;
11313;SDS011;5712;48.858;9.206;2023-05-08T09:08:02;8.00;;;7.20;;
11313;SDS011;5712;48.858;9.206;2023-05-08T09:10:29;9.13;;;6.67;;
11313;SDS011;5712;48.858;9.206;2023-05-08T09:12:56;11.00;;;8.30;;
11313;SDS011;5712;48.858;9.206;2023-05-08T09:15:22;8.77;;;7.63;;
11313;SDS011;5712;48.858;9.206;2023-05-08T09:17:50;8.80;;;7.90;;
11313;SDS011;5712;48.858;9.206;2023-05-08T09:20:16;10.07;;;7.90;;
11313;SDS011;5712;48.858;9.206;2023-05-08T09:22:44;8.83;;;7.93;;
11313;SDS011;5712;48.858;9.206;2023-05-08T09:25:11;7.53;;;6.73;;
11313;SDS011;5712;48.858;9.206;2023-05-08T09:27:38;9.07;;;7.73;;
11313;SDS011;5712;48.858;9.206;2023-05-08T09:30:05;8.00;;;7.10;;
11313;SDS011;5712;48.858;9.206;2023-05-08T09:32:35;7.77;;;6.97;;
11313;SDS011;5712;48.858;9.206;2023-05-08T09:35:05;6.40;;;5.80;;
11313;SDS011;5712;48.858;9.206;2023-05-08T09:37:33;7.77;;;7.07;;
11313;SDS011;5712;48.858;9.206;2023-05-08T09:40:12;6.73;;;6.13;;
11313;SDS011;5712;48.858;9.206;2023-05-08T09:42:40;7.40;;;6.43;;
11313;SDS011;5712;48.858;9.206;2023-05-08T09:45:07;6.23;;;5.63;;
11313;SDS011;5712;48.858;9.206;2023-05-08T09:47:34;7.57;;;6.87;;
11313;SDS011;5712;48.858;9.206;2023-05-08T09:50:05;7.10;;;6.17;;
11313;SDS011;5712;48.858;9.206;2023-05-08T09:52:34;6.63;;;6.00;;
11313;SDS011;5712;48.858;9.206;2023-05-08T09:55:02;7.00;;;6.37;;
11313;SDS011;5712;48.858;9.206;2023-05-08T09:57:30;6.30;;;5.70;;
11313;SDS011;5712;48.858;9.206;2023-05-08T10:00:00;6.20;;;5.60;;
11313;SDS011;5712;48.858;9.206;2023-05-08T10:02:29;6.13;;;5.53;;
11313;SDS011;5712;48.858;9.206;2023-05-08T10:04:56;7.97;;;6.40;;
11313;SDS011;5712;48.858;9.206;2023-05-08T10:07:27;8.30;;;7.40;;
11313;SDS011;5712;48.858;9.206;2023-05-08T10:09:59;7.27;;;6.53;;
11313;SDS011;5712;48.858;9.206;2023-05-08T10:12:27;6.80;;;6.10;;
11313;SDS011;5712;48.858;9.206;2023-05-08T10:14:54;7.63;;;5.87;;
11313;SDS011;5712;48.858;9.206;2023-05-08T10:17:24;7.37;;;5.97;;
11313;SDS011;5712;48.858;9.206;2023-05-08T10:19:53;6.63;;;5.90;;
11313;SDS011;5712;48.858;9.206;2023-05-08T10:22:24;7.17;;;6.40;;
11313;SDS011;5712;48.858;9.206;2023-05-08T10:24:53;9.83;;;8.33;;
11313;SDS011;5712;48.858;9.206;2023-05-08T10:27:22;7.77;;;7.00;;
11313;SDS011;5712;48.858;9.206;2023-05-08T10:29:58;7.20;;;6.50;;
11313;SDS011;5712;48.858;9.206;2023-05-08T10:32:28;8.13;;;7.30;;
11313;SDS011;5712;48.858;9.206;2023-05-08T10:35:01;9.20;;;8.30;;
11313;SDS011;5712;48.858;9.206;2023-05-08T10:37:28;10.17;;;9.07;;
11313;SDS011;5712;48.858;9.206;2023-05-08T10:39:57;10.50;;;9.00;;
11313;SDS011;5712;48.858;9.206;2023-05-08T10:42:25;10.13;;;8.30;;
11313;SDS011;5712;48.858;9.206;2023-05-08T10:44:52;9.10;;;7.83;;
11313;SDS011;5712;48.858;9.206;2023-05-08T10:47:21;8.43;;;7.63;;
11313;SDS011;5712;48.858;9.206;2023-05-08T10:49:54;10.33;;;8.27;;
11313;SDS011;5712;48.858;9.206;2023-05-08T10:52:28;8.23;;;7.40;;
11313;SDS011;5712;48.858;9.206;2023-05-08T10:55:08;8.60;;;7.57;;
11313;SDS011;5712;48.858;9.206;2023-05-08T10:58:04;8.47;;;7.30;;
11313;SDS011;5712;48.858;9.206;2023-05-08T11:03:40;9.23;;;8.23;;
11313;SDS011;5712;48.858;9.206;2023-05-08T11:06:09;7.93;;;7.13;;
11313;SDS011;5712;48.858;9.206;2023-05-08T11:08:42;7.63;;;6.90;;
11313;SDS011;5712;48.858;9.206;2023-05-08T11:11:19;7.50;;;6.80;;
11313;SDS011;5712;48.858;9.206;2023-05-08T11:13:52;9.17;;;6.53;;
11313;SDS011;5712;48.858;9.206;2023-05-08T11:19:25;8.17;;;7.23;;
11313;SDS011;5712;48.858;9.206;2023-05-08T11:22:10;8.27;;;7.37;;
11313;SDS011;5712;48.858;9.206;2023-05-08T11:24:46;7.20;;;6.50;;
11313;SDS011;5712;48.858;9.206;2023-05-08T11:27:15;8.87;;;7.57;;
11313;SDS011;5712;48.858;9.206;2023-05-08T11:29:42;8.50;;;7.37;;
11313;SDS011;5712;48.858;9.206;2023-05-08T11:32:09;10.23;;;8.53;;
11313;SDS011;5712;48.858;9.206;2023-05-08T11:34:45;11.57;;;8.67;;
11313;SDS011;5712;48.858;9.206;2023-05-08T11:37:17;7.77;;;6.97;;
11313;SDS011;5712;48.858;9.206;2023-05-08T11:39:44;8.20;;;7.30;;
11313;SDS011;5712;48.858;9.206;2023-05-08T11:45:02;8.07;;;7.30;;
11313;SDS011;5712;48.858;9.206;2023-05-08T11:47:31;7.73;;;7.03;;
11313;SDS011;5712;48.858;9.206;2023-05-08T11:50:03;7.87;;;7.07;;
11313;SDS011;5712;48.858;9.206;2023-05-08T11:52:30;7.97;;;7.10;;
11313;SDS011;5712;48.858;9.206;2023-05-08T11:54:59;10.23;;;7.90;;
11313;SDS011;5712;48.858;9.206;2023-05-08T11:57:28;7.40;;;6.70;;
11313;SDS011;5712;48.858;9.206;2023-05-08T11:59:57;7.43;;;6.73;;
11313;SDS011;5712;48.858;9.206;2023-05-08T12:02:34;6.90;;;6.30;;
11313;SDS011;5712;48.858;9.206;2023-05-08T12:05:02;7.57;;;6.87;;
11313;SDS011;5712;48.858;9.206;2023-05-08T12:07:29;6.60;;;6.00;;
11313;SDS011;5712;48.858;9.206;2023-05-08T12:09:55;6.40;;;5.80;;
11313;SDS011;5712;48.858;9.206;2023-05-08T12:12:22;7.13;;;6.43;;
11313;SDS011;5712;48.858;9.206;2023-05-08T12:14:49;7.43;;;6.50;;
11313;SDS011;5712;48.858;9.206;2023-05-08T12:17:17;8.90;;;7.27;;
11313;SDS011;5712;48.858;9.206;2023-05-08T12:19:44;8.87;;;7.93;;
11313;SDS011;5712;48.858;9.206;2023-05-08T12:22:10;8.43;;;7.70;;
11313;SDS011;5712;48.858;9.206;2023-05-08T12:24:37;7.83;;;7.03;;
11313;SDS011;5712;48.858;9.206;2023-05-08T12:27:04;7.23;;;6.53;;
11313;SDS011;5712;48.858;9.206;2023-05-08T12:29:34;7.20;;;6.50;;
11313;SDS011;5712;48.858;9.206;2023-05-08T12:32:03;7.20;;;6.50;;
11313;SDS011;5712;48.858;9.206;2023-05-08T12:34:31;6.97;;;6.37;;
11313;SDS011;5712;48.858;9.206;2023-05-08T12:37:02;7.40;;;6.70;;
11313;SDS011;5712;48.858;9.206;2023-05-08T12:39:33;7.50;;;6.80;;
11313;SDS011;5712;48.858;9.206;2023-05-08T12:42:01;7.40;;;6.75;;
11313;SDS011;5712;48.858;9.206;2023-05-08T12:44:28;7.33;;;6.73;;
11313;SDS011;5712;48.858;9.206;2023-05-08T12:46:55;9.53;;;8.63;;
11313;SDS011;5712;48.858;9.206;2023-05-08T12:49:23;12.23;;;10.00;;
11313;SDS011;5712;48.858;9.206;2023-05-08T12:51:52;11.47;;;10.30;;
11313;SDS011;5712;48.858;9.206;2023-05-08T12:54:30;11.73;;;10.53;;
11313;SDS011;5712;48.858;9.206;2023-05-08T12:56:57;12.10;;;10.90;;
11313;SDS011;5712;48.858;9.206;2023-05-08T12:59:27;14.03;;;12.57;;
11313;SDS011;5712;48.858;9.206;2023-05-08T13:01:54;14.23;;;12.83;;
11313;SDS011;5712;48.858;9.206;2023-05-08T13:04:20;12.17;;;10.97;;
11313;SDS011;5712;48.858;9.206;2023-05-08T13:06:53;14.60;;;13.10;;
11313;SDS011;5712;48.858;9.206;2023-05-08T13:09:20;13.87;;;11.20;;
11313;SDS011;5712;48.858;9.206;2023-05-08T13:11:48;12.87;;;11.37;;
11313;SDS011;5712;48.858;9.206;2023-05-08T13:14:14;13.93;;;12.53;;
11313;SDS011;5712;48.858;9.206;2023-05-08T13:16:41;12.47;;;11.17;;
11313;SDS011;5712;48.858;9.206;2023-05-08T13:19:09;12.87;;;11.57;;
11313;SDS011;5712;48.858;9.206;2023-05-08T13:21:35;12.43;;;11.13;;
11313;SDS011;5712;48.858;9.206;2023-05-08T13:24:03;12.27;;;10.97;;
11313;SDS011;5712;48.858;9.206;2023-05-08T13:26:30;13.33;;;11.80;;
11313;SDS011;5712;48.858;9.206;2023-05-08T13:28:56;13.13;;;11.73;;
11313;SDS011;5712;48.858;9.206;2023-05-08T13:31:23;13.67;;;12.27;;
11313;SDS011;5712;48.858;9.206;2023-05-08T13:33:50;15.00;;;12.13;;
11313;SDS011;5712;48.858;9.206;2023-05-08T13:36:16;13.83;;;12.03;;
11313;SDS011;5712;48.858;9.206;2023-05-08T13:38:44;14.93;;;13.33;;
11313;SDS011;5712;48.858;9.206;2023-05-08T13:41:12;14.30;;;12.67;;
11313;SDS011;5712;48.858;9.206;2023-05-08T13:43:38;15.67;;;13.20;;
11313;SDS011;5712;48.858;9.206;2023-05-08T13:46:06;15.70;;;13.60;;
11313;SDS011;5712;48.858;9.206;2023-05-08T13:48:33;16.53;;;13.63;;
11313;SDS011;5712;48.858;9.206;2023-05-08T13:50:59;15.00;;;13.00;;
11313;SDS011;5712;48.858;9.206;2023-05-08T13:53:25;15.93;;;14.00;;
11313;SDS011;5712;48.858;9.206;2023-05-08T13:55:52;17.53;;;13.73;;
11313;SDS011;5712;48.858;9.206;2023-05-08T13:58:20;14.90;;;13.13;;
11313;SDS011;5712;48.858;9.206;2023-05-08T14:00:46;17.80;;;13.57;;
11313;SDS011;5712;48.858;9.206;2023-05-08T14:03:13;16.57;;;13.53;;
11313;SDS011;5712;48.858;9.206;2023-05-08T14:05:41;15.47;;;13.77;;
11313;SDS011;5712;48.858;9.206;2023-05-08T14:08:07;16.30;;;14.60;;
11313;SDS011;5712;48.858;9.206;2023-05-08T14:10:35;17.50;;;14.97;;
11313;SDS011;5712;48.858;9.206;2023-05-08T14:13:01;17.80;;;14.97;;
11313;SDS011;5712;48.858;9.206;2023-05-08T14:15:29;17.00;;;15.10;;
11313;SDS011;5712;48.858;9.206;2023-05-08T14:17:56;17.70;;;15.33;;
11313;SDS011;5712;48.858;9.206;2023-05-08T14:20:22;16.07;;;14.37;;
11313;SDS011;5712;48.858;9.206;2023-05-08T14:22:49;16.13;;;14.47;;
11313;SDS011;5712;48.858;9.206;2023-05-08T14:25:15;17.27;;;15.13;;
11313;SDS011;5712;48.858;9.206;2023-05-08T14:27:42;16.53;;;14.83;;
11313;SDS011;5712;48.858;9.206;2023-05-08T14:30:09;17.27;;;15.37;;
11313;SDS011;5712;48.858;9.206;2023-05-08T14:32:37;18.83;;;16.27;;
11313;SDS011;5712;48.858;9.206;2023-05-08T14:35:04;17.93;;;16.03;;
11313;SDS011;5712;48.858;9.206;2023-05-08T14:37:31;16.40;;;14.67;;
11313;SDS011;5712;48.858;9.206;2023-05-08T14:39:57;17.77;;;15.70;;
11313;SDS011;5712;48.858;9.206;2023-05-08T14:42:24;16.53;;;14.77;;
11313;SDS011;5712;48.858;9.206;2023-05-08T14:44:51;17.70;;;15.80;;
11313;SDS011;5712;48.858;9.206;2023-05-08T14:47:19;17.77;;;15.87;;
11313;SDS011;5712;48.858;9.206;2023-05-08T14:49:48;19.33;;;15.80;;
11313;SDS011;5712;48.858;9.206;2023-05-08T14:52:15;18.10;;;16.17;;
11313;SDS011;5712;48.858;9.206;2023-05-08T14:54:41;18.87;;;16.00;;
11313;SDS011;5712;48.858;9.206;2023-05-08T14:57:08;17.97;;;15.53;;
11313;SDS011;5712;48.858;9.206;2023-05-08T14:59:34;19.93;;;16.20;;
11313;SDS011;5712;48.858;9.206;2023-05-08T15:02:01;16.33;;;14.63;;
11313;SDS011;5712;48.858;9.206;2023-05-08T15:04:27;15.93;;;14.23;;
11313;SDS011;5712;48.858;9.206;2023-05-08T15:06:56;16.37;;;13.83;;
11313;SDS011;5712;48.858;9.206;2023-05-08T15:09:22;16.43;;;14.30;;
11313;SDS011;5712;48.858;9.206;2023-05-08T15:11:49;15.57;;;13.80;;